Salina, KS (67401)

7:02 PM CDT on July 30, 2016 (GMT -0500)
Stegall's Oasis | | Change Station

Elev 1247 ft 38.82 °N, 97.63 °W | Updated 2 minutes ago

Partly Cloudy
Partly Cloudy
88.2 °F
Feels Like 93 °F
N
0.0
Wind Variable Wind from SSE

Today
High -- | Low -- °F
--% Chance of Precip.
Yesterday
High -- | Low -- °F
Precip. -- in
Pressure 29.86 in
Visibility 10.0 miles
Clouds Few 4800 ft
Heat Index 93 °F
Dew Point 69 °F
Humidity 53%
Rainfall 0.00 in
Snow Depth Not available.
6:30 AM 8:43 PM
Waning Crescent, 10% visible
METAR KSLN 302353Z 13012KT 10SM FEW048 32/20 A2990 RMK AO2 SLP111 60000 T03170200 10333 20294 56012
Pressure 29.86 in
Visibility 10.0 miles
Clouds Few 4800 ft
Heat Index 93 °F
Dew Point 69 °F
Humidity 53%
Rainfall 0.00 in
Snow Depth Not available.
6:30 AM 8:43 PM
Waning Crescent, 10% visible
METAR KSLN 302353Z 13012KT 10SM FEW048 32/20 A2990 RMK AO2 SLP111 60000 T03170200 10333 20294 56012

10-Day Weather Forecast

Almanac

Astronomy

Jul. 30, 2016 Rise Set
Actual Time
Civil Twilight
Nautical Twilight
Astronomical Twilight
Moon
Length of Visible Light
Length of Day
Tomorrow will be .
, % of the Moon is Illuminated

Today's Extremes

State Highs State Lows

Community

WunderPhotos

Upload Photos

1,928,682 photos uploaded!

WunderBlog® & News

Nearby

Air Quality

  Air Quality AQ Index Pollutant
Not available.

Snow Depth

Station Depth Elevation

Earthquake Activity

City Distance Mag. Time & Date
Minimum magnitude displayed is 2.5.

Coastal Water Temperatures

Place Temperature

Stations

Nearby Weather Stations

Station Location Temp. Windchill Dew Point Humidity Wind Precip. Elev Updated Type
                   

Watches & Warnings

There are currently no watches in effect.